sensor_id;sensor_type;location;lat;lon;timestamp;temperature;humidity
38209;DHT22;24016;52.102;11.584;2022-11-25T00:01:13;3.80;99.90
38209;DHT22;24016;52.102;11.584;2022-11-25T00:03:40;3.70;99.90
38209;DHT22;24016;52.102;11.584;2022-11-25T00:06:20;3.60;99.90
38209;DHT22;24016;52.102;11.584;2022-11-25T00:08:49;3.40;99.90
38209;DHT22;24016;52.102;11.584;2022-11-25T00:11:15;3.30;99.90
38209;DHT22;24016;52.102;11.584;2022-11-25T00:13:42;3.20;99.90
38209;DHT22;24016;52.102;11.584;2022-11-25T00:16:14;3.30;99.90
38209;DHT22;24016;52.102;11.584;2022-11-25T00:18:47;3.20;99.90
38209;DHT22;24016;52.102;11.584;2022-11-25T00:21:15;3.20;99.90
38209;DHT22;24016;52.102;11.584;2022-11-25T00:23:42;3.10;99.90
38209;DHT22;24016;52.102;11.584;2022-11-25T00:26:12;2.90;99.90
38209;DHT22;24016;52.102;11.584;2022-11-25T00:28:39;2.80;99.90
38209;DHT22;24016;52.102;11.584;2022-11-25T00:31:07;2.70;99.90
38209;DHT22;24016;52.102;11.584;2022-11-25T00:33:33;2.60;99.90
38209;DHT22;24016;52.102;11.584;2022-11-25T00:36:03;2.50;99.90
38209;DHT22;24016;52.102;11.584;2022-11-25T00:38:28;2.40;99.90
38209;DHT22;24016;52.102;11.584;2022-11-25T00:40:54;2.40;99.90
38209;DHT22;24016;52.102;11.584;2022-11-25T00:43:38;2.40;99.90
38209;DHT22;24016;52.102;11.584;2022-11-25T00:46:22;2.40;99.90
38209;DHT22;24016;52.102;11.584;2022-11-25T00:48:48;2.40;99.90
38209;DHT22;24016;52.102;11.584;2022-11-25T00:51:13;2.30;99.90
38209;DHT22;24016;52.102;11.584;2022-11-25T00:53:39;2.30;99.90
38209;DHT22;24016;52.102;11.584;2022-11-25T00:56:05;2.40;99.90
38209;DHT22;24016;52.102;11.584;2022-11-25T00:58:43;2.30;99.90
38209;DHT22;24016;52.102;11.584;2022-11-25T01:01:10;2.30;99.90
38209;DHT22;24016;52.102;11.584;2022-11-25T01:03:36;2.30;99.90
38209;DHT22;24016;52.102;11.584;2022-11-25T01:06:03;2.30;99.90
38209;DHT22;24016;52.102;11.584;2022-11-25T01:08:30;2.20;99.90
38209;DHT22;24016;52.102;11.584;2022-11-25T01:10:59;2.30;99.90
38209;DHT22;24016;52.102;11.584;2022-11-25T01:13:25;2.40;99.90
38209;DHT22;24016;52.102;11.584;2022-11-25T01:15:51;2.40;99.90
38209;DHT22;24016;52.102;11.584;2022-11-25T01:18:16;2.40;99.90
38209;DHT22;24016;52.102;11.584;2022-11-25T01:20:42;2.30;99.90
38209;DHT22;24016;52.102;11.584;2022-11-25T01:23:08;2.30;99.90
38209;DHT22;24016;52.102;11.584;2022-11-25T01:25:37;2.20;99.90
38209;DHT22;24016;52.102;11.584;2022-11-25T01:28:03;2.10;99.90
38209;DHT22;24016;52.102;11.584;2022-11-25T01:30:29;2.20;99.90
38209;DHT22;24016;52.102;11.584;2022-11-25T01:32:55;2.20;99.90
38209;DHT22;24016;52.102;11.584;2022-11-25T01:35:20;2.10;99.90
38209;DHT22;24016;52.102;11.584;2022-11-25T01:37:46;2.20;99.90
38209;DHT22;24016;52.102;11.584;2022-11-25T01:40:11;2.20;99.90
38209;DHT22;24016;52.102;11.584;2022-11-25T01:42:47;2.20;99.90
38209;DHT22;24016;52.102;11.584;2022-11-25T01:47:55;2.40;99.90
38209;DHT22;24016;52.102;11.584;2022-11-25T01:50:22;2.40;99.90
38209;DHT22;24016;52.102;11.584;2022-11-25T01:52:50;2.40;99.90
38209;DHT22;24016;52.102;11.584;2022-11-25T01:55:25;2.20;99.90
38209;DHT22;24016;52.102;11.584;2022-11-25T01:58:19;2.20;99.90
38209;DHT22;24016;52.102;11.584;2022-11-25T02:00:43;2.20;99.90
38209;DHT22;24016;52.102;11.584;2022-11-25T02:03:19;2.30;99.90
38209;DHT22;24016;52.102;11.584;2022-11-25T02:08:28;2.00;99.90
38209;DHT22;24016;52.102;11.584;2022-11-25T02:10:54;1.90;99.90
38209;DHT22;24016;52.102;11.584;2022-11-25T02:13:22;1.90;99.90
38209;DHT22;24016;52.102;11.584;2022-11-25T02:15:48;2.10;99.90
38209;DHT22;24016;52.102;11.584;2022-11-25T02:18:14;2.10;99.90
38209;DHT22;24016;52.102;11.584;2022-11-25T02:20:40;1.90;99.90
38209;DHT22;24016;52.102;11.584;2022-11-25T02:23:45;1.80;99.90
38209;DHT22;24016;52.102;11.584;2022-11-25T02:26:12;1.90;99.90
38209;DHT22;24016;52.102;11.584;2022-11-25T02:28:38;2.00;99.90
38209;DHT22;24016;52.102;11.584;2022-11-25T02:34:11;1.90;99.90
38209;DHT22;24016;52.102;11.584;2022-11-25T02:36:37;1.70;99.90
38209;DHT22;24016;52.102;11.584;2022-11-25T02:39:03;1.70;99.90
38209;DHT22;24016;52.102;11.584;2022-11-25T02:41:39;1.60;99.90
38209;DHT22;24016;52.102;11.584;2022-11-25T02:44:05;1.60;99.90
38209;DHT22;24016;52.102;11.584;2022-11-25T02:46:32;1.70;99.90
38209;DHT22;24016;52.102;11.584;2022-11-25T02:48:58;1.80;99.90
38209;DHT22;24016;52.102;11.584;2022-11-25T02:51:29;1.90;99.90
38209;DHT22;24016;52.102;11.584;2022-11-25T02:53:55;1.90;99.90
38209;DHT22;24016;52.102;11.584;2022-11-25T02:56:24;1.90;99.90
38209;DHT22;24016;52.102;11.584;2022-11-25T02:58:50;1.90;99.90
38209;DHT22;24016;52.102;11.584;2022-11-25T03:01:16;1.90;99.90
38209;DHT22;24016;52.102;11.584;2022-11-25T03:03:42;2.10;99.90
38209;DHT22;24016;52.102;11.584;2022-11-25T03:06:08;2.10;99.90
38209;DHT22;24016;52.102;11.584;2022-11-25T03:08:35;2.40;99.90
38209;DHT22;24016;52.102;11.584;2022-11-25T03:11:04;2.20;99.90
38209;DHT22;24016;52.102;11.584;2022-11-25T03:13:30;2.20;99.90
38209;DHT22;24016;52.102;11.584;2022-11-25T03:15:56;2.40;99.90
38209;DHT22;24016;52.102;11.584;2022-11-25T03:18:22;2.10;99.90
38209;DHT22;24016;52.102;11.584;2022-11-25T03:20:51;2.00;99.90
38209;DHT22;24016;52.102;11.584;2022-11-25T03:23:17;2.00;99.90
38209;DHT22;24016;52.102;11.584;2022-11-25T03:25:46;2.00;99.90
38209;DHT22;24016;52.102;11.584;2022-11-25T03:28:12;1.90;99.90
38209;DHT22;24016;52.102;11.584;2022-11-25T03:30:38;2.00;99.90
38209;DHT22;24016;52.102;11.584;2022-11-25T03:33:04;1.80;99.90
38209;DHT22;24016;52.102;11.584;2022-11-25T03:35:30;1.80;99.90
38209;DHT22;24016;52.102;11.584;2022-11-25T03:37:56;1.70;99.90
38209;DHT22;24016;52.102;11.584;2022-11-25T03:40:22;1.50;99.90
38209;DHT22;24016;52.102;11.584;2022-11-25T03:42:48;1.60;99.90
38209;DHT22;24016;52.102;11.584;2022-11-25T03:45:14;1.50;99.90
38209;DHT22;24016;52.102;11.584;2022-11-25T03:47:41;1.60;99.90
38209;DHT22;24016;52.102;11.584;2022-11-25T03:50:07;1.60;99.90
38209;DHT22;24016;52.102;11.584;2022-11-25T03:52:33;1.60;99.90
38209;DHT22;24016;52.102;11.584;2022-11-25T03:54:59;1.70;99.90
38209;DHT22;24016;52.102;11.584;2022-11-25T03:57:25;1.80;99.90
38209;DHT22;24016;52.102;11.584;2022-11-25T03:59:50;1.80;99.90
38209;DHT22;24016;52.102;11.584;2022-11-25T04:02:16;1.80;99.90
38209;DHT22;24016;52.102;11.584;2022-11-25T04:04:41;1.80;99.90
38209;DHT22;24016;52.102;11.584;2022-11-25T04:07:07;1.90;99.90
38209;DHT22;24016;52.102;11.584;2022-11-25T04:09:33;1.80;99.90
38209;DHT22;24016;52.102;11.584;2022-11-25T04:11:58;1.90;99.90
38209;DHT22;24016;52.102;11.584;2022-11-25T04:14:43;1.90;99.90
38209;DHT22;24016;52.102;11.584;2022-11-25T04:17:08;1.80;99.90
38209;DHT22;24016;52.102;11.584;2022-11-25T04:19:34;1.70;99.90
38209;DHT22;24016;52.102;11.584;2022-11-25T04:21:59;1.70;99.90
38209;DHT22;24016;52.102;11.584;2022-11-25T04:24:26;1.70;99.90
38209;DHT22;24016;52.102;11.584;2022-11-25T04:26:52;1.70;99.90
38209;DHT22;24016;52.102;11.584;2022-11-25T04:29:18;1.70;99.90
38209;DHT22;24016;52.102;11.584;2022-11-25T04:31:43;1.70;99.90
38209;DHT22;24016;52.102;11.584;2022-11-25T04:34:09;1.80;99.90
38209;DHT22;24016;52.102;11.584;2022-11-25T04:36:34;1.80;99.90
38209;DHT22;24016;52.102;11.584;2022-11-25T04:39:00;1.80;99.90
38209;DHT22;24016;52.102;11.584;2022-11-25T04:41:26;1.80;99.90
38209;DHT22;24016;52.102;11.584;2022-11-25T04:43:51;1.70;99.90
38209;DHT22;24016;52.102;11.584;2022-11-25T04:46:20;1.70;99.90
38209;DHT22;24016;52.102;11.584;2022-11-25T04:48:46;1.70;99.90
38209;DHT22;24016;52.102;11.584;2022-11-25T04:51:12;1.60;99.90
38209;DHT22;24016;52.102;11.584;2022-11-25T04:53:38;1.60;99.90
38209;DHT22;24016;52.102;11.584;2022-11-25T04:56:04;1.60;99.90
38209;DHT22;24016;52.102;11.584;2022-11-25T04:58:30;1.70;99.90
38209;DHT22;24016;52.102;11.584;2022-11-25T05:01:14;1.60;99.90
38209;DHT22;24016;52.102;11.584;2022-11-25T05:03:40;1.50;99.90
38209;DHT22;24016;52.102;11.584;2022-11-25T05:06:06;1.60;99.90
38209;DHT22;24016;52.102;11.584;2022-11-25T05:08:32;1.50;99.90
38209;DHT22;24016;52.102;11.584;2022-11-25T05:10:58;1.50;99.90
38209;DHT22;24016;52.102;11.584;2022-11-25T05:13:24;1.50;99.90
38209;DHT22;24016;52.102;11.584;2022-11-25T05:15:50;1.60;99.90
38209;DHT22;24016;52.102;11.584;2022-11-25T05:18:15;1.50;99.90
38209;DHT22;24016;52.102;11.584;2022-11-25T05:20:41;1.50;99.90
38209;DHT22;24016;52.102;11.584;2022-11-25T05:23:06;1.50;99.90
38209;DHT22;24016;52.102;11.584;2022-11-25T05:25:32;1.50;99.90
38209;DHT22;24016;52.102;11.584;2022-11-25T05:27:57;1.40;99.90
38209;DHT22;24016;52.102;11.584;2022-11-25T05:30:23;1.40;99.90
38209;DHT22;24016;52.102;11.584;2022-11-25T05:32:49;1.40;99.90
38209;DHT22;24016;52.102;11.584;2022-11-25T05:35:14;1.40;99.90
38209;DHT22;24016;52.102;11.584;2022-11-25T05:37:40;1.40;99.90
38209;DHT22;24016;52.102;11.584;2022-11-25T05:40:06;1.50;99.90
38209;DHT22;24016;52.102;11.584;2022-11-25T05:42:32;1.50;99.90
38209;DHT22;24016;52.102;11.584;2022-11-25T05:44:57;1.50;99.90
38209;DHT22;24016;52.102;11.584;2022-11-25T05:47:23;1.50;99.90
38209;DHT22;24016;52.102;11.584;2022-11-25T05:49:48;1.50;99.90
38209;DHT22;24016;52.102;11.584;2022-11-25T05:52:14;1.50;99.90
38209;DHT22;24016;52.102;11.584;2022-11-25T05:54:39;1.40;99.90
38209;DHT22;24016;52.102;11.584;2022-11-25T05:57:05;1.50;99.90
38209;DHT22;24016;52.102;11.584;2022-11-25T05:59:30;1.50;99.90
38209;DHT22;24016;52.102;11.584;2022-11-25T06:01:56;1.50;99.90
38209;DHT22;24016;52.102;11.584;2022-11-25T06:04:21;1.50;99.90
38209;DHT22;24016;52.102;11.584;2022-11-25T06:06:47;1.50;99.90
38209;DHT22;24016;52.102;11.584;2022-11-25T06:09:13;1.50;99.90
38209;DHT22;24016;52.102;11.584;2022-11-25T06:11:38;1.60;99.90
38209;DHT22;24016;52.102;11.584;2022-11-25T06:14:04;1.60;99.90
38209;DHT22;24016;52.102;11.584;2022-11-25T06:16:29;1.60;99.90
38209;DHT22;24016;52.102;11.584;2022-11-25T06:18:55;1.60;99.90
38209;DHT22;24016;52.102;11.584;2022-11-25T06:21:21;1.60;99.90
38209;DHT22;24016;52.102;11.584;2022-11-25T06:23:46;1.60;99.90
38209;DHT22;24016;52.102;11.584;2022-11-25T06:26:15;1.60;99.90
38209;DHT22;24016;52.102;11.584;2022-11-25T06:28:41;1.60;99.90
38209;DHT22;24016;52.102;11.584;2022-11-25T06:31:16;1.60;99.90
38209;DHT22;24016;52.102;11.584;2022-11-25T06:33:42;1.50;99.90
38209;DHT22;24016;52.102;11.584;2022-11-25T06:36:10;1.50;99.90
38209;DHT22;24016;52.102;11.584;2022-11-25T06:38:42;1.60;99.90
38209;DHT22;24016;52.102;11.584;2022-11-25T06:41:08;1.50;99.90
38209;DHT22;24016;52.102;11.584;2022-11-25T06:43:34;1.40;99.90
38209;DHT22;24016;52.102;11.584;2022-11-25T06:46:07;1.40;99.90
38209;DHT22;24016;52.102;11.584;2022-11-25T06:48:34;1.40;99.90
38209;DHT22;24016;52.102;11.584;2022-11-25T06:51:02;1.40;99.90
38209;DHT22;24016;52.102;11.584;2022-11-25T06:53:29;1.40;99.90
38209;DHT22;24016;52.102;11.584;2022-11-25T06:56:15;1.40;99.90
38209;DHT22;24016;52.102;11.584;2022-11-25T06:58:42;1.30;99.90
38209;DHT22;24016;52.102;11.584;2022-11-25T07:01:16;1.40;99.90
38209;DHT22;24016;52.102;11.584;2022-11-25T07:03:46;1.40;99.90
38209;DHT22;24016;52.102;11.584;2022-11-25T07:06:14;1.40;99.90
38209;DHT22;24016;52.102;11.584;2022-11-25T07:08:40;1.50;99.90
38209;DHT22;24016;52.102;11.584;2022-11-25T07:11:10;1.50;99.90
38209;DHT22;24016;52.102;11.584;2022-11-25T07:13:37;1.50;99.90
38209;DHT22;24016;52.102;11.584;2022-11-25T07:16:04;1.40;99.90
38209;DHT22;24016;52.102;11.584;2022-11-25T07:18:34;1.50;99.90
38209;DHT22;24016;52.102;11.584;2022-11-25T07:21:02;1.50;99.90
38209;DHT22;24016;52.102;11.584;2022-11-25T07:23:28;1.60;99.90
38209;DHT22;24016;52.102;11.584;2022-11-25T07:25:54;1.60;99.90
38209;DHT22;24016;52.102;11.584;2022-11-25T07:28:19;1.60;99.90
38209;DHT22;24016;52.102;11.584;2022-11-25T07:30:45;1.60;99.90
38209;DHT22;24016;52.102;11.584;2022-11-25T07:33:11;1.70;99.90
38209;DHT22;24016;52.102;11.584;2022-11-25T07:35:36;1.80;99.90
38209;DHT22;24016;52.102;11.584;2022-11-25T07:38:02;1.90;99.90
38209;DHT22;24016;52.102;11.584;2022-11-25T07:40:27;1.90;99.90
38209;DHT22;24016;52.102;11.584;2022-11-25T07:42:53;2.00;99.90
38209;DHT22;24016;52.102;11.584;2022-11-25T07:45:19;2.10;99.90
38209;DHT22;24016;52.102;11.584;2022-11-25T07:47:46;2.20;99.90
38209;DHT22;24016;52.102;11.584;2022-11-25T07:50:11;2.20;99.90
38209;DHT22;24016;52.102;11.584;2022-11-25T07:52:38;2.20;99.90
38209;DHT22;24016;52.102;11.584;2022-11-25T07:55:04;2.20;99.90
38209;DHT22;24016;52.102;11.584;2022-11-25T07:57:30;2.20;99.90
38209;DHT22;24016;52.102;11.584;2022-11-25T07:59:55;2.20;99.90
38209;DHT22;24016;52.102;11.584;2022-11-25T08:02:21;2.20;99.90
38209;DHT22;24016;52.102;11.584;2022-11-25T08:04:46;2.20;99.90
38209;DHT22;24016;52.102;11.584;2022-11-25T08:07:12;2.20;99.90
38209;DHT22;24016;52.102;11.584;2022-11-25T08:09:37;2.20;99.90
38209;DHT22;24016;52.102;11.584;2022-11-25T08:12:03;2.20;99.90
38209;DHT22;24016;52.102;11.584;2022-11-25T08:14:29;2.20;99.90
38209;DHT22;24016;52.102;11.584;2022-11-25T08:16:54;2.30;99.90
38209;DHT22;24016;52.102;11.584;2022-11-25T08:19:20;2.40;99.90
38209;DHT22;24016;52.102;11.584;2022-11-25T08:21:45;2.50;99.90
38209;DHT22;24016;52.102;11.584;2022-11-25T08:24:16;2.50;99.90
38209;DHT22;24016;52.102;11.584;2022-11-25T08:26:42;2.50;99.90
38209;DHT22;24016;52.102;11.584;2022-11-25T08:29:09;2.50;99.90
38209;DHT22;24016;52.102;11.584;2022-11-25T08:31:37;2.60;99.90
38209;DHT22;24016;52.102;11.584;2022-11-25T08:34:04;2.70;99.90
38209;DHT22;24016;52.102;11.584;2022-11-25T08:36:31;2.80;99.90
38209;DHT22;24016;52.102;11.584;2022-11-25T08:38:59;2.80;99.90
38209;DHT22;24016;52.102;11.584;2022-11-25T08:41:31;2.90;99.90
38209;DHT22;24016;52.102;11.584;2022-11-25T08:43:59;3.00;99.90
38209;DHT22;24016;52.102;11.584;2022-11-25T08:46:27;3.20;99.90
38209;DHT22;24016;52.102;11.584;2022-11-25T08:48:53;3.30;99.90
38209;DHT22;24016;52.102;11.584;2022-11-25T08:51:22;3.40;99.90
38209;DHT22;24016;52.102;11.584;2022-11-25T08:53:49;3.50;99.90
38209;DHT22;24016;52.102;11.584;2022-11-25T08:56:18;3.50;99.90
38209;DHT22;24016;52.102;11.584;2022-11-25T08:58:44;3.50;99.90
38209;DHT22;24016;52.102;11.584;2022-11-25T09:01:10;3.60;99.90
38209;DHT22;24016;52.102;11.584;2022-11-25T09:03:39;3.60;99.90
38209;DHT22;24016;52.102;11.584;2022-11-25T09:06:06;3.60;99.90
38209;DHT22;24016;52.102;11.584;2022-11-25T09:08:32;3.60;99.90
38209;DHT22;24016;52.102;11.584;2022-11-25T09:10:58;3.60;99.90
38209;DHT22;24016;52.102;11.584;2022-11-25T09:13:23;3.70;99.90
38209;DHT22;24016;52.102;11.584;2022-11-25T09:15:49;3.70;99.90
38209;DHT22;24016;52.102;11.584;2022-11-25T09:18:14;3.60;99.90
38209;DHT22;24016;52.102;11.584;2022-11-25T09:20:41;3.70;99.90
38209;DHT22;24016;52.102;11.584;2022-11-25T09:23:07;3.70;99.90
38209;DHT22;24016;52.102;11.584;2022-11-25T09:25:33;3.80;99.90
38209;DHT22;24016;52.102;11.584;2022-11-25T09:28:00;3.80;99.90
38209;DHT22;24016;52.102;11.584;2022-11-25T09:30:26;3.80;99.90
38209;DHT22;24016;52.102;11.584;2022-11-25T09:32:53;3.90;99.90
38209;DHT22;24016;52.102;11.584;2022-11-25T09:35:19;3.90;99.90
38209;DHT22;24016;52.102;11.584;2022-11-25T09:37:45;4.00;99.90
38209;DHT22;24016;52.102;11.584;2022-11-25T09:40:33;4.00;99.90
38209;DHT22;24016;52.102;11.584;2022-11-25T09:46:42;4.20;99.90
38209;DHT22;24016;52.102;11.584;2022-11-25T09:54:57;4.40;99.90
38209;DHT22;24016;52.102;11.584;2022-11-25T09:57:26;4.40;99.90
38209;DHT22;24016;52.102;11.584;2022-11-25T10:05:28;4.60;99.90
38209;DHT22;24016;52.102;11.584;2022-11-25T10:08:00;4.70;99.90
38209;DHT22;24016;52.102;11.584;2022-11-25T10:10:30;4.80;99.90
38209;DHT22;24016;52.102;11.584;2022-11-25T10:12:57;4.80;99.90
38209;DHT22;24016;52.102;11.584;2022-11-25T10:15:29;4.80;99.90
38209;DHT22;24016;52.102;11.584;2022-11-25T10:18:02;4.90;99.90
38209;DHT22;24016;52.102;11.584;2022-11-25T10:20:34;5.00;99.90
38209;DHT22;24016;52.102;11.584;2022-11-25T10:23:03;5.00;99.90
38209;DHT22;24016;52.102;11.584;2022-11-25T10:25:37;5.10;99.90
38209;DHT22;24016;52.102;11.584;2022-11-25T10:28:16;5.20;99.90
38209;DHT22;24016;52.102;11.584;2022-11-25T10:33:26;5.30;99.90
38209;DHT22;24016;52.102;11.584;2022-11-25T10:35:52;5.40;99.90
38209;DHT22;24016;52.102;11.584;2022-11-25T10:38:33;5.50;99.90
38209;DHT22;24016;52.102;11.584;2022-11-25T10:41:02;5.60;99.90
38209;DHT22;24016;52.102;11.584;2022-11-25T10:43:29;5.70;99.90
38209;DHT22;24016;52.102;11.584;2022-11-25T10:49:27;5.80;99.90
38209;DHT22;24016;52.102;11.584;2022-11-25T10:51:54;5.90;99.90
38209;DHT22;24016;52.102;11.584;2022-11-25T10:54:26;6.10;99.90
38209;DHT22;24016;52.102;11.584;2022-11-25T10:56:54;6.40;99.90
38209;DHT22;24016;52.102;11.584;2022-11-25T10:59:38;6.60;99.90
38209;DHT22;24016;52.102;11.584;2022-11-25T11:02:30;6.70;99.90
38209;DHT22;24016;52.102;11.584;2022-11-25T11:05:18;6.90;99.90
38209;DHT22;24016;52.102;11.584;2022-11-25T11:07:46;6.90;99.90
38209;DHT22;24016;52.102;11.584;2022-11-25T11:10:23;7.00;99.90
38209;DHT22;24016;52.102;11.584;2022-11-25T11:13:02;7.10;99.90
38209;DHT22;24016;52.102;11.584;2022-11-25T11:18:29;7.40;99.90
38209;DHT22;24016;52.102;11.584;2022-11-25T11:21:19;7.40;99.90
38209;DHT22;24016;52.102;11.584;2022-11-25T11:23:49;7.40;99.90
38209;DHT22;24016;52.102;11.584;2022-11-25T11:26:28;7.40;99.90
38209;DHT22;24016;52.102;11.584;2022-11-25T11:29:04;7.40;99.90
38209;DHT22;24016;52.102;11.584;2022-11-25T11:31:35;7.40;99.90
38209;DHT22;24016;52.102;11.584;2022-11-25T11:34:44;7.60;99.90
38209;DHT22;24016;52.102;11.584;2022-11-25T11:37:40;7.70;99.90
38209;DHT22;24016;52.102;11.584;2022-11-25T11:40:36;7.70;99.90
38209;DHT22;24016;52.102;11.584;2022-11-25T11:49:04;7.70;99.90
38209;DHT22;24016;52.102;11.584;2022-11-25T11:54:49;7.70;99.90
38209;DHT22;24016;52.102;11.584;2022-11-25T12:00:19;7.80;99.90
38209;DHT22;24016;52.102;11.584;2022-11-25T12:02:59;7.80;99.90
38209;DHT22;24016;52.102;11.584;2022-11-25T12:05:27;7.80;99.90
38209;DHT22;24016;52.102;11.584;2022-11-25T12:08:00;7.70;99.90
38209;DHT22;24016;52.102;11.584;2022-11-25T12:10:42;7.70;99.90
38209;DHT22;24016;52.102;11.584;2022-11-25T12:13:23;7.80;99.90
38209;DHT22;24016;52.102;11.584;2022-11-25T12:15:56;8.00;99.90
38209;DHT22;24016;52.102;11.584;2022-11-25T12:18:46;8.10;99.90
38209;DHT22;24016;52.102;11.584;2022-11-25T12:29:41;8.30;99.90
38209;DHT22;24016;52.102;11.584;2022-11-25T12:35:10;8.40;99.90
38209;DHT22;24016;52.102;11.584;2022-11-25T12:40:33;8.20;99.90
38209;DHT22;24016;52.102;11.584;2022-11-25T12:43:24;8.10;99.90
38209;DHT22;24016;52.102;11.584;2022-11-25T12:46:21;8.10;99.90
38209;DHT22;24016;52.102;11.584;2022-11-25T12:48:48;8.10;99.90
38209;DHT22;24016;52.102;11.584;2022-11-25T12:51:52;8.10;99.90
38209;DHT22;24016;52.102;11.584;2022-11-25T12:57:38;8.40;99.90
38209;DHT22;24016;52.102;11.584;2022-11-25T13:11:27;8.40;99.90
38209;DHT22;24016;52.102;11.584;2022-11-25T13:16:37;8.30;99.90
38209;DHT22;24016;52.102;11.584;2022-11-25T13:19:08;8.10;99.90
38209;DHT22;24016;52.102;11.584;2022-11-25T13:24:46;8.00;99.90
38209;DHT22;24016;52.102;11.584;2022-11-25T13:29:56;7.80;99.90
38209;DHT22;24016;52.102;11.584;2022-11-25T13:32:38;7.80;99.90
38209;DHT22;24016;52.102;11.584;2022-11-25T13:37:49;7.70;99.90
38209;DHT22;24016;52.102;11.584;2022-11-25T13:42:55;7.60;99.90
38209;DHT22;24016;52.102;11.584;2022-11-25T13:45:33;7.70;99.90
38209;DHT22;24016;52.102;11.584;2022-11-25T13:48:16;7.70;99.90
38209;DHT22;24016;52.102;11.584;2022-11-25T13:50:44;7.70;99.90
38209;DHT22;24016;52.102;11.584;2022-11-25T13:53:32;7.70;99.90
38209;DHT22;24016;52.102;11.584;2022-11-25T14:01:37;7.50;99.90
38209;DHT22;24016;52.102;11.584;2022-11-25T14:04:07;7.50;99.90
38209;DHT22;24016;52.102;11.584;2022-11-25T14:07:04;7.40;99.90
38209;DHT22;24016;52.102;11.584;2022-11-25T14:12:34;7.30;99.90
38209;DHT22;24016;52.102;11.584;2022-11-25T14:23:40;7.20;99.90
38209;DHT22;24016;52.102;11.584;2022-11-25T14:26:10;7.20;99.90
38209;DHT22;24016;52.102;11.584;2022-11-25T14:28:46;7.20;99.90
38209;DHT22;24016;52.102;11.584;2022-11-25T14:31:18;7.20;99.90
38209;DHT22;24016;52.102;11.584;2022-11-25T14:34:02;7.20;99.90
38209;DHT22;24016;52.102;11.584;2022-11-25T14:36:43;7.20;99.90
38209;DHT22;24016;52.102;11.584;2022-11-25T14:39:24;7.20;99.90
38209;DHT22;24016;52.102;11.584;2022-11-25T14:41:58;7.10;99.90
38209;DHT22;24016;52.102;11.584;2022-11-25T14:44:53;7.10;99.90
38209;DHT22;24016;52.102;11.584;2022-11-25T14:47:32;7.10;99.90
38209;DHT22;24016;52.102;11.584;2022-11-25T14:49:59;7.00;99.90
38209;DHT22;24016;52.102;11.584;2022-11-25T14:52:31;7.00;99.90
38209;DHT22;24016;52.102;11.584;2022-11-25T14:54:59;7.00;99.90
38209;DHT22;24016;52.102;11.584;2022-11-25T14:57:27;7.00;99.90
38209;DHT22;24016;52.102;11.584;2022-11-25T14:59:56;7.00;99.90
38209;DHT22;24016;52.102;11.584;2022-11-25T15:02:31;6.90;99.90
38209;DHT22;24016;52.102;11.584;2022-11-25T15:07:40;6.80;99.90
38209;DHT22;24016;52.102;11.584;2022-11-25T15:10:26;6.80;99.90
38209;DHT22;24016;52.102;11.584;2022-11-25T15:12:52;6.80;99.90
38209;DHT22;24016;52.102;11.584;2022-11-25T15:15:18;6.80;99.90
38209;DHT22;24016;52.102;11.584;2022-11-25T15:17:43;6.70;99.90
38209;DHT22;24016;52.102;11.584;2022-11-25T15:20:14;6.60;99.90
38209;DHT22;24016;52.102;11.584;2022-11-25T15:22:48;6.60;99.90
38209;DHT22;24016;52.102;11.584;2022-11-25T15:25:15;6.60;99.90
38209;DHT22;24016;52.102;11.584;2022-11-25T15:27:47;6.60;99.90
38209;DHT22;24016;52.102;11.584;2022-11-25T15:30:25;6.50;99.90
38209;DHT22;24016;52.102;11.584;2022-11-25T15:32:51;6.50;99.90
38209;DHT22;24016;52.102;11.584;2022-11-25T15:35:20;6.50;99.90
38209;DHT22;24016;52.102;11.584;2022-11-25T15:37:46;6.50;99.90
38209;DHT22;24016;52.102;11.584;2022-11-25T15:43:04;6.40;99.90
38209;DHT22;24016;52.102;11.584;2022-11-25T15:45:51;6.40;99.90
38209;DHT22;24016;52.102;11.584;2022-11-25T15:48:25;6.40;99.90
38209;DHT22;24016;52.102;11.584;2022-11-25T15:50:51;6.40;99.90
38209;DHT22;24016;52.102;11.584;2022-11-25T15:53:25;6.30;99.90
38209;DHT22;24016;52.102;11.584;2022-11-25T15:55:52;6.30;99.90
38209;DHT22;24016;52.102;11.584;2022-11-25T15:58:21;6.30;99.90
38209;DHT22;24016;52.102;11.584;2022-11-25T16:03:44;6.30;99.90
38209;DHT22;24016;52.102;11.584;2022-11-25T16:06:26;6.30;99.90
38209;DHT22;24016;52.102;11.584;2022-11-25T16:08:54;6.30;99.90
38209;DHT22;24016;52.102;11.584;2022-11-25T16:11:21;6.30;99.90
38209;DHT22;24016;52.102;11.584;2022-11-25T16:13:51;6.30;99.90
38209;DHT22;24016;52.102;11.584;2022-11-25T16:16:30;6.30;99.90
38209;DHT22;24016;52.102;11.584;2022-11-25T16:26:31;6.20;99.90
38209;DHT22;24016;52.102;11.584;2022-11-25T16:28:59;6.20;99.90
38209;DHT22;24016;52.102;11.584;2022-11-25T16:31:26;6.20;99.90
38209;DHT22;24016;52.102;11.584;2022-11-25T16:33:55;6.20;99.90
38209;DHT22;24016;52.102;11.584;2022-11-25T16:36:21;6.20;99.90
38209;DHT22;24016;52.102;11.584;2022-11-25T16:38:50;6.20;99.90
38209;DHT22;24016;52.102;11.584;2022-11-25T16:41:22;6.20;99.90
38209;DHT22;24016;52.102;11.584;2022-11-25T16:43:48;6.20;99.90
38209;DHT22;24016;52.102;11.584;2022-11-25T16:46:16;6.20;99.90
38209;DHT22;24016;52.102;11.584;2022-11-25T16:48:43;6.20;99.90
38209;DHT22;24016;52.102;11.584;2022-11-25T16:51:35;6.20;99.90
38209;DHT22;24016;52.102;11.584;2022-11-25T16:54:00;6.20;99.90
38209;DHT22;24016;52.102;11.584;2022-11-25T16:56:27;6.20;99.90
38209;DHT22;24016;52.102;11.584;2022-11-25T16:58:53;6.20;99.90
38209;DHT22;24016;52.102;11.584;2022-11-25T17:01:23;6.20;99.90
38209;DHT22;24016;52.102;11.584;2022-11-25T17:03:49;6.20;99.90
38209;DHT22;24016;52.102;11.584;2022-11-25T17:06:21;6.20;99.90
38209;DHT22;24016;52.102;11.584;2022-11-25T17:08:46;6.20;99.90
38209;DHT22;24016;52.102;11.584;2022-11-25T17:13:48;6.30;99.90
38209;DHT22;24016;52.102;11.584;2022-11-25T17:16:25;6.30;99.90
38209;DHT22;24016;52.102;11.584;2022-11-25T17:18:53;6.30;99.90
38209;DHT22;24016;52.102;11.584;2022-11-25T17:21:19;6.30;99.90
38209;DHT22;24016;52.102;11.584;2022-11-25T17:23:45;6.30;99.90
38209;DHT22;24016;52.102;11.584;2022-11-25T17:26:37;6.30;99.90
38209;DHT22;24016;52.102;11.584;2022-11-25T17:29:03;6.30;99.90
38209;DHT22;24016;52.102;11.584;2022-11-25T17:31:31;6.30;99.90
38209;DHT22;24016;52.102;11.584;2022-11-25T17:33:57;6.30;99.90
38209;DHT22;24016;52.102;11.584;2022-11-25T17:36:24;6.30;99.90
38209;DHT22;24016;52.102;11.584;2022-11-25T17:38:50;6.30;99.90
38209;DHT22;24016;52.102;11.584;2022-11-25T17:41:18;6.30;99.90
38209;DHT22;24016;52.102;11.584;2022-11-25T17:43:45;6.40;99.90
38209;DHT22;24016;52.102;11.584;2022-11-25T17:46:13;6.30;99.90
38209;DHT22;24016;52.102;11.584;2022-11-25T17:48:39;6.30;99.90